createdAt,value
2023-01-28T00:02:03.865Z,72.71
2023-01-28T00:07:03.794Z,72.73
2023-01-28T00:12:03.755Z,72.74
2023-01-28T00:17:03.925Z,72.72
2023-01-28T00:22:03.616Z,72.75
2023-01-28T00:27:03.823Z,72.75
2023-01-28T00:32:03.510Z,72.75
2023-01-28T00:37:03.445Z,72.73
2023-01-28T00:42:03.391Z,72.73
2023-01-28T00:47:03.277Z,72.74
2023-01-28T00:52:03.250Z,72.73
2023-01-28T00:57:03.169Z,72.73
2023-01-28T01:02:03.115Z,72.73
2023-01-28T01:07:23.800Z,72.55
2023-01-28T01:12:16.213Z,72.69
2023-01-28T01:17:16.174Z,72.81
2023-01-28T01:22:16.084Z,72.81
2023-01-28T01:27:16.046Z,72.80
2023-01-28T01:32:15.965Z,72.83
2023-01-28T01:37:15.884Z,72.86
2023-01-28T01:42:15.818Z,72.87
2023-01-28T01:47:15.765Z,72.89
2023-01-28T01:52:15.683Z,72.88
2023-01-28T01:57:15.653Z,72.91
2023-01-28T02:02:15.640Z,72.93
2023-01-28T02:07:15.558Z,72.93
2023-01-28T02:12:15.432Z,72.96
2023-01-28T02:17:15.378Z,72.96
2023-01-28T02:22:15.298Z,72.94
2023-01-28T02:27:15.299Z,72.96
2023-01-28T02:32:15.179Z,72.99
2023-01-28T02:37:15.143Z,73.03
2023-01-28T02:42:15.054Z,73.06
2023-01-28T02:47:15.024Z,73.06
2023-01-28T02:52:14.921Z,73.07
2023-01-28T02:57:14.877Z,73.06
2023-01-28T03:02:14.880Z,73.05
2023-01-28T03:07:14.750Z,73.04
2023-01-28T03:12:14.684Z,73.03
2023-01-28T03:17:14.679Z,73.02
2023-01-28T03:22:14.517Z,73.00
2023-01-28T03:27:14.535Z,73.01
2023-01-28T03:32:14.490Z,73.06
2023-01-28T03:37:14.371Z,73.06
2023-01-28T03:42:14.299Z,73.09
2023-01-28T03:47:14.238Z,73.11
2023-01-28T03:52:14.220Z,73.15
2023-01-28T03:57:14.101Z,73.18
2023-01-28T04:02:14.016Z,73.20
2023-01-28T04:07:13.974Z,73.20
2023-01-28T04:12:13.892Z,73.19
2023-01-28T04:17:13.851Z,73.16
2023-01-28T04:22:13.772Z,73.15
2023-01-28T04:27:13.707Z,73.13
2023-01-28T04:32:13.647Z,73.15
2023-01-28T04:37:13.582Z,73.15
2023-01-28T04:42:13.521Z,73.14
2023-01-28T04:47:13.458Z,73.14
2023-01-28T04:52:13.415Z,73.10
2023-01-28T04:57:13.336Z,73.11
2023-01-28T05:02:13.330Z,73.08
2023-01-28T05:07:13.208Z,73.07
2023-01-28T05:12:13.123Z,73.04
2023-01-28T05:17:24.100Z,72.81
2023-01-28T05:22:16.454Z,72.90
2023-01-28T05:27:16.395Z,73.03
2023-01-28T05:32:16.363Z,73.02
2023-01-28T05:37:16.245Z,72.96
2023-01-28T05:42:16.197Z,72.95
2023-01-28T05:47:16.170Z,72.89
2023-01-28T05:52:16.074Z,72.88
2023-01-28T05:57:15.998Z,72.84
2023-01-28T06:02:15.991Z,72.79
2023-01-28T06:07:15.879Z,72.79
2023-01-28T06:12:15.828Z,72.76
2023-01-28T06:17:18.219Z,72.76
2023-01-28T06:22:15.677Z,72.74
2023-01-28T06:27:15.617Z,72.69
2023-01-28T06:32:15.594Z,72.63
2023-01-28T06:37:15.491Z,72.61
2023-01-28T06:42:15.428Z,72.61
2023-01-28T06:47:15.381Z,72.55
2023-01-28T06:52:15.294Z,72.51
2023-01-28T06:57:15.220Z,72.47
2023-01-28T07:02:15.190Z,72.46
2023-01-28T07:07:15.125Z,72.41
2023-01-28T07:12:15.098Z,72.28
2023-01-28T07:17:15.169Z,72.29
2023-01-28T07:22:18.364Z,72.24
2023-01-28T07:27:14.825Z,72.16
2023-01-28T07:32:14.795Z,72.04
2023-01-28T07:37:14.819Z,71.93
2023-01-28T07:42:14.668Z,71.89
2023-01-28T07:47:14.655Z,71.78
2023-01-28T07:52:14.524Z,71.56
2023-01-28T07:57:14.449Z,71.30
2023-01-28T08:02:14.406Z,71.05
2023-01-28T08:07:14.331Z,70.89
2023-01-28T08:12:14.279Z,70.68
2023-01-28T08:17:14.205Z,70.60
2023-01-28T08:22:14.149Z,70.59
2023-01-28T08:27:14.069Z,70.76
2023-01-28T08:32:14.024Z,70.78
2023-01-28T08:37:13.930Z,70.82
2023-01-28T08:42:13.879Z,70.67
2023-01-28T08:47:13.817Z,70.25
2023-01-28T08:52:13.760Z,69.91
2023-01-28T08:57:13.692Z,69.80
2023-01-28T09:02:29.256Z,69.53
2023-01-28T09:07:14.562Z,69.52
2023-01-28T09:12:13.489Z,69.65
2023-01-28T09:17:13.440Z,69.80
2023-01-28T09:22:13.389Z,69.83
2023-01-28T09:27:13.304Z,69.79
2023-01-28T09:32:13.255Z,68.94
2023-01-28T09:37:13.173Z,68.26
2023-01-28T09:42:13.151Z,67.90
2023-01-28T09:47:13.053Z,67.56
2023-01-28T09:52:13.011Z,67.25
2023-01-28T09:57:12.937Z,67.04
2023-01-28T10:02:12.874Z,66.73
2023-01-28T10:07:12.797Z,66.59
2023-01-28T10:12:12.713Z,66.73
2023-01-28T10:17:12.649Z,66.63
2023-01-28T10:22:12.606Z,66.66
2023-01-28T10:27:12.523Z,66.54
2023-01-28T10:32:12.466Z,66.01
2023-01-28T10:37:12.398Z,65.83
2023-01-28T10:42:12.343Z,65.73
2023-01-28T10:47:12.253Z,65.72
2023-01-28T10:52:12.209Z,65.50
2023-01-28T10:57:12.131Z,65.71
2023-01-28T11:02:12.092Z,65.73
2023-01-28T11:07:11.989Z,65.46
2023-01-28T11:12:11.954Z,65.25
2023-01-28T11:17:11.941Z,65.54
2023-01-28T11:22:11.897Z,65.37
2023-01-28T11:27:11.718Z,65.61
2023-01-28T11:32:11.669Z,65.42
2023-01-28T11:37:11.596Z,65.03
2023-01-28T11:42:11.562Z,65.22
2023-01-28T11:47:11.481Z,65.44
2023-01-28T11:52:11.430Z,65.57
2023-01-28T11:57:11.340Z,65.44
2023-01-28T12:02:11.287Z,65.52
2023-01-28T12:07:11.211Z,65.72
2023-01-28T12:12:11.133Z,65.97
2023-01-28T12:17:11.067Z,66.10
2023-01-28T12:22:11.019Z,66.11
2023-01-28T12:27:10.960Z,66.32
2023-01-28T12:32:10.895Z,66.21
2023-01-28T12:37:10.812Z,66.10
2023-01-28T12:42:10.767Z,66.09
2023-01-28T12:47:10.674Z,66.06
2023-01-28T12:52:10.647Z,65.86
2023-01-28T12:57:10.644Z,65.84
2023-01-28T13:02:10.577Z,65.67
2023-01-28T13:07:10.449Z,65.64
2023-01-28T13:12:12.113Z,65.58
2023-01-28T13:17:10.375Z,65.48
2023-01-28T13:22:10.247Z,65.57
2023-01-28T13:27:10.189Z,65.59
2023-01-28T13:32:10.241Z,65.50
2023-01-28T13:37:10.058Z,65.51
2023-01-28T13:42:09.989Z,65.05
2023-01-28T13:47:09.929Z,64.93
2023-01-28T13:52:09.853Z,64.61
2023-01-28T13:57:09.978Z,64.34
2023-01-28T14:02:09.730Z,64.43
2023-01-28T14:07:09.669Z,64.58
2023-01-28T14:12:09.611Z,64.71
2023-01-28T14:17:09.525Z,64.74
2023-01-28T14:22:09.474Z,64.46
2023-01-28T14:27:09.427Z,64.50
2023-01-28T14:32:10.946Z,64.39
2023-01-28T14:37:09.305Z,64.53
2023-01-28T14:42:09.222Z,64.51
2023-01-28T14:47:09.164Z,64.18
2023-01-28T14:52:09.107Z,64.07
2023-01-28T14:57:09.044Z,64.47
2023-01-28T15:02:08.965Z,64.60
2023-01-28T15:07:08.916Z,64.65
2023-01-28T15:12:08.831Z,64.69
2023-01-28T15:17:08.825Z,64.67
2023-01-28T15:22:08.693Z,64.87
2023-01-28T15:27:08.653Z,65.09
2023-01-28T15:32:08.566Z,65.21
2023-01-28T15:37:08.523Z,65.30
2023-01-28T15:42:08.453Z,65.38
2023-01-28T15:47:08.394Z,65.57
2023-01-28T15:52:08.352Z,65.74
2023-01-28T15:57:08.265Z,65.87
2023-01-28T16:02:08.240Z,65.99
2023-01-28T16:07:08.137Z,66.09
2023-01-28T16:12:08.075Z,66.13
2023-01-28T16:17:08.049Z,66.21
2023-01-28T16:22:07.934Z,66.28
2023-01-28T16:27:07.847Z,66.35
2023-01-28T16:32:07.885Z,66.45
2023-01-28T16:37:07.843Z,66.52
2023-01-28T16:42:07.650Z,66.58
2023-01-28T16:47:07.630Z,66.62
2023-01-28T16:52:07.576Z,66.71
2023-01-28T16:57:07.492Z,66.81
2023-01-28T17:02:07.420Z,66.87
2023-01-28T17:07:07.371Z,66.95
2023-01-28T17:12:07.300Z,67.00
2023-01-28T17:17:07.268Z,67.02
2023-01-28T17:22:07.170Z,67.06
2023-01-28T17:27:07.131Z,67.09
2023-01-28T17:32:07.041Z,67.12
2023-01-28T17:37:06.985Z,67.12
2023-01-28T17:42:06.940Z,67.15
2023-01-28T17:47:06.886Z,67.15
2023-01-28T17:52:06.774Z,67.17
2023-01-28T17:57:06.733Z,67.18
2023-01-28T18:02:06.701Z,67.23
2023-01-28T18:07:06.613Z,67.22
2023-01-28T18:12:06.543Z,67.23
2023-01-28T18:17:06.491Z,67.20
2023-01-28T18:22:06.407Z,67.22
2023-01-28T18:27:06.323Z,67.15
2023-01-28T18:32:06.305Z,67.07
2023-01-28T18:37:06.243Z,67.07
2023-01-28T18:42:06.120Z,67.06
2023-01-28T18:47:06.150Z,67.08
2023-01-28T18:52:06.024Z,67.11
2023-01-28T18:57:05.956Z,67.10
2023-01-28T19:02:05.914Z,67.09
2023-01-28T19:07:08.016Z,67.11
2023-01-28T19:12:05.814Z,67.10
2023-01-28T19:17:05.741Z,67.12
2023-01-28T19:22:05.675Z,67.13
2023-01-28T19:27:05.580Z,67.13
2023-01-28T19:32:06.318Z,67.16
2023-01-28T19:37:05.480Z,67.12
2023-01-28T19:42:05.400Z,67.12
2023-01-28T19:47:05.336Z,67.18
2023-01-28T19:52:05.246Z,67.18
2023-01-28T19:57:05.211Z,67.21
2023-01-28T20:02:05.130Z,67.26
2023-01-28T20:07:05.114Z,67.19
2023-01-28T20:12:04.975Z,67.18
2023-01-28T20:17:05.000Z,67.14
2023-01-28T20:22:04.866Z,67.11
2023-01-28T20:27:04.838Z,67.12
2023-01-28T20:32:16.192Z,67.13
2023-01-28T20:37:05.785Z,67.19
2023-01-28T20:42:04.603Z,67.23
2023-01-28T20:47:04.641Z,67.28
2023-01-28T20:52:04.590Z,67.37
2023-01-28T20:57:04.424Z,67.42
2023-01-28T21:02:04.467Z,67.47
2023-01-28T21:07:04.306Z,67.46
2023-01-28T21:12:04.322Z,67.45
2023-01-28T21:17:04.660Z,67.50
2023-01-28T21:22:04.102Z,67.58
2023-01-28T21:27:04.082Z,67.63
2023-01-28T21:32:04.037Z,67.66
2023-01-28T21:37:03.925Z,67.68
2023-01-28T21:42:03.942Z,67.69
2023-01-28T21:47:03.804Z,67.70
2023-01-28T21:52:03.792Z,67.67
2023-01-28T21:57:03.739Z,67.67
2023-01-28T22:02:03.584Z,67.69
2023-01-28T22:07:03.541Z,67.72
2023-01-28T22:12:03.424Z,67.75
2023-01-28T22:17:03.447Z,67.79
2023-01-28T22:22:03.341Z,67.80
2023-01-28T22:27:03.312Z,67.80
2023-01-28T22:32:03.232Z,67.82
2023-01-28T22:37:03.148Z,67.90
2023-01-28T22:42:03.072Z,67.93
2023-01-28T22:47:03.024Z,67.99
2023-01-28T22:52:02.950Z,68.05
2023-01-28T22:57:02.919Z,68.11
2023-01-28T23:02:02.852Z,68.13
2023-01-28T23:07:02.768Z,68.16
2023-01-28T23:12:02.687Z,68.16
2023-01-28T23:17:02.702Z,68.19
2023-01-28T23:22:02.600Z,68.19
2023-01-28T23:27:02.490Z,68.20
2023-01-28T23:32:02.453Z,68.22
2023-01-28T23:37:02.430Z,68.20
2023-01-28T23:42:02.391Z,68.18
2023-01-28T23:47:02.344Z,68.20
2023-01-28T23:52:02.187Z,68.19
2023-01-28T23:57:02.153Z,68.19
